Time;durP1;ratioP1;P1;durP2;ratioP2;P2;SDS_P1;SDS_P2;PMS_P1;PMS_P2;Temp;Humidity;BMP_temperature;BMP_pressure;BME280_temperature;BME280_humidity;BME280_pressure;Samples;Min_cycle;Max_cycle;Signal;HPM_P1;HPM_P2
2022/12/21 00:00:09;;;;;;;27.83;16.10;;;;;;;-148.88;100.00;75773.16;5015383;28;20392;-83
2022/12/21 00:02:35;;;;;;;29.02;15.88;;;;;;;-148.88;100.00;75773.16;5016396;28;20057;-83
2022/12/21 00:05:00;;;;;;;28.23;13.77;;;;;;;-148.88;100.00;75767.06;5015039;28;20053;-83
2022/12/21 00:07:25;;;;;;;30.35;15.82;;;;;;;-148.88;100.00;75779.25;5016018;28;20032;-83
2022/12/21 00:09:51;;;;;;;27.95;14.73;;;;;;;-148.88;100.00;75781.28;5014780;28;20080;-83
2022/12/21 00:12:16;;;;;;;27.92;15.15;;;;;;;-148.88;100.00;75777.22;5013222;28;20393;-82
2022/12/21 00:14:41;;;;;;;34.53;16.63;;;;;;;-148.88;100.00;75771.13;5014493;28;20503;-83
2022/12/21 00:17:06;;;;;;;32.75;16.23;;;;;;;-148.88;100.00;75769.09;5014530;28;20025;-83
2022/12/21 00:19:32;;;;;;;30.63;16.42;;;;;;;-148.88;100.00;75752.84;5013764;28;20077;-83
2022/12/21 00:21:57;;;;;;;30.52;17.25;;;;;;;-148.88;100.00;75752.84;5013990;28;20075;-83
2022/12/21 00:24:23;;;;;;;35.08;19.27;;;;;;;-148.88;100.00;75760.97;5013413;28;20018;-83
2022/12/21 00:26:48;;;;;;;35.63;17.35;;;;;;;-148.88;100.00;75748.78;5013056;28;20101;-84
2022/12/21 00:29:13;;;;;;;35.05;17.27;;;;;;;-148.88;100.00;75769.09;5013277;28;20056;-83
2022/12/21 00:31:41;;;;;;;34.22;17.55;;;;;;;-148.88;100.00;75773.16;5013540;28;20076;-83
2022/12/21 00:34:07;;;;;;;32.35;17.38;;;;;;;-148.88;100.00;75769.09;5014836;28;20022;-83
2022/12/21 00:36:32;;;;;;;33.72;17.27;;;;;;;-148.88;100.00;75760.97;5013619;28;20072;-83
2022/12/21 00:38:58;;;;;;;35.25;16.60;;;;;;;-148.88;100.00;75752.84;5013302;28;20421;-83
2022/12/21 00:41:26;;;;;;;37.60;17.92;;;;;;;-148.88;100.00;75769.09;5020454;28;20041;-84
2022/12/21 00:43:53;;;;;;;37.40;16.25;;;;;;;-148.88;100.00;75773.16;5014577;28;20469;-84
2022/12/21 00:46:23;;;;;;;39.92;18.38;;;;;;;-148.88;100.00;75773.16;5014334;28;20033;-84
2022/12/21 00:48:50;;;;;;;39.17;17.02;;;;;;;-148.88;100.00;75765.03;5012572;28;20029;-84
2022/12/21 00:51:18;;;;;;;38.75;18.30;;;;;;;-148.88;100.00;75769.09;5012416;28;20026;-84
2022/12/21 00:53:45;;;;;;;43.95;19.35;;;;;;;-148.88;100.00;75771.13;5013540;28;20054;-83
2022/12/21 00:56:11;;;;;;;39.85;18.52;;;;;;;-148.88;100.00;75773.16;5013463;28;20028;-84
2022/12/21 00:58:37;;;;;;;43.00;19.52;;;;;;;-148.88;100.00;75773.16;5012157;28;20033;-83
2022/12/21 01:01:13;;;;;;;44.40;17.98;;;;;;;-148.88;100.00;75771.13;5013663;28;20104;-83
2022/12/21 01:03:38;;;;;;;43.53;18.98;;;;;;;-148.88;100.00;75781.28;5011972;28;20025;-83
2022/12/21 01:06:04;;;;;;;50.70;29.83;;;;;;;-148.88;100.00;75765.03;5013368;28;20116;-82
2022/12/21 01:08:29;;;;;;;41.97;18.83;;;;;;;-148.88;100.00;75777.22;5013063;28;20036;-83
2022/12/21 01:11:00;;;;;;;42.33;17.88;;;;;;;-148.88;100.00;75789.41;5013766;28;20057;-83
2022/12/21 01:13:27;;;;;;;41.67;18.42;;;;;;;-148.88;100.00;75777.22;5013474;28;20053;-83
2022/12/21 01:15:53;;;;;;;45.15;20.92;;;;;;;-148.88;100.00;75787.38;5013578;28;20108;-83
2022/12/21 01:18:18;;;;;;;49.00;19.83;;;;;;;-148.88;100.00;75795.50;5013196;28;20068;-83
2022/12/21 01:20:46;;;;;;;46.60;20.35;;;;;;;-148.88;100.00;75801.59;5013141;28;20021;-83
2022/12/21 01:23:11;;;;;;;43.53;19.58;;;;;;;-148.88;100.00;75793.47;5012011;28;20540;-83
2022/12/21 01:25:37;;;;;;;47.17;19.17;;;;;;;-148.88;100.00;75809.72;5013358;28;20053;-83
2022/12/21 01:28:02;;;;;;;53.50;20.38;;;;;;;-148.88;100.00;75809.72;5013222;28;20038;-83
2022/12/21 01:30:28;;;;;;;54.00;22.80;;;;;;;-148.88;100.00;75797.53;5013189;28;20033;-83
2022/12/21 01:32:53;;;;;;;62.65;32.63;;;;;;;-148.88;100.00;75801.59;5012019;28;20104;-83
2022/12/21 01:35:19;;;;;;;53.53;32.35;;;;;;;-148.88;100.00;75789.41;5013116;28;20057;-83
2022/12/21 01:37:44;;;;;;;61.53;33.25;;;;;;;-148.88;100.00;75793.47;5012979;28;20507;-83
2022/12/21 01:40:11;;;;;;;64.65;31.92;;;;;;;-148.88;100.00;75797.53;5011558;28;20022;-82
2022/12/21 01:42:36;;;;;;;45.40;20.13;;;;;;;-148.88;100.00;75801.59;5011568;28;20032;-83
2022/12/21 01:45:06;;;;;;;46.22;18.63;;;;;;;-148.88;100.00;75813.78;5011398;28;20026;-83
2022/12/21 01:47:40;;;;;;;53.20;22.02;;;;;;;-148.88;100.00;75823.94;5011561;28;20088;-83
2022/12/21 01:50:25;;;;;;;;;;;;;;;-148.88;100.00;75830.03;5013557;28;20101;-84
2022/12/21 01:52:53;;;;;;;43.38;17.38;;;;;;;-148.88;100.00;75825.97;5012539;28;19935;-83
2022/12/21 01:55:18;;;;;;;59.85;20.58;;;;;;;-148.88;100.00;75819.88;5013967;28;20562;-83
2022/12/21 01:57:44;;;;;;;51.33;21.15;;;;;;;-148.88;100.00;75811.75;5016977;28;20026;-83
2022/12/21 02:00:10;;;;;;;57.67;22.27;;;;;;;-148.88;100.00;75805.66;5017133;28;20104;-82
2022/12/21 02:02:42;;;;;;;54.97;21.20;;;;;;;-148.88;100.00;75813.78;5015271;28;20545;-83
2022/12/21 02:05:32;;;;;;;50.35;21.63;;;;;;;-148.88;100.00;75815.81;5016666;28;20504;-82
2022/12/21 02:08:01;;;;;;;51.85;20.75;;;;;;;-148.88;100.00;75825.97;5016067;28;20037;-83
2022/12/21 02:10:26;;;;;;;50.88;19.70;;;;;;;-148.88;100.00;75805.66;5016769;28;20025;-83
2022/12/21 02:12:59;;;;;;;51.28;21.20;;;;;;;-148.88;100.00;75821.91;5015156;28;20443;-83
2022/12/21 02:15:41;;;;;;;49.80;17.70;;;;;;;-148.88;100.00;75821.91;5016768;28;20485;-83
2022/12/21 02:18:21;;;;;;;51.88;20.83;;;;;;;-148.88;100.00;75830.03;5014949;28;20076;-83
2022/12/21 02:21:09;;;;;;;45.63;19.35;;;;;;;-148.88;100.00;75828.00;5015715;28;20013;-83
2022/12/21 02:24:14;;;;;;;50.53;19.98;;;;;;;-148.88;100.00;75830.03;5015100;28;20040;-83
2022/12/21 02:26:55;;;;;;;51.42;20.40;;;;;;;-148.88;100.00;75821.91;5015035;28;20396;-83
2022/12/21 02:29:30;;;;;;;46.65;19.42;;;;;;;-148.88;100.00;75828.00;5015714;28;20116;-82
2022/12/21 02:32:30;;;;;;;47.95;19.25;;;;;;;-148.88;100.00;75830.03;5014875;28;20141;-83
2022/12/21 02:35:13;;;;;;;51.15;18.23;;;;;;;-148.88;100.00;75825.97;5015945;28;20036;-83
2022/12/21 02:37:56;;;;;;;48.78;20.13;;;;;;;-148.88;100.00;75817.84;5016238;28;20048;-83
2022/12/21 02:41:00;;;;;;;54.22;18.20;;;;;;;-148.88;100.00;75821.91;5016002;28;20022;-83
2022/12/21 02:46:53;;;;;;;52.85;20.75;;;;;;;-148.88;100.00;75811.75;5015973;28;20032;-82
2022/12/21 02:49:24;;;;;;;54.88;21.42;;;;;;;-148.88;100.00;75805.66;5014692;28;20048;-83
2022/12/21 02:51:58;;;;;;;44.10;19.10;;;;;;;-148.88;100.00;75799.56;5014496;28;20018;-83
2022/12/21 02:54:24;;;;;;;;;;;;;;;-148.88;100.00;75795.50;5016085;28;20045;-83
2022/12/21 02:56:49;;;;;;;41.95;17.50;;;;;;;-148.88;100.00;75813.78;5014357;28;19913;-82
2022/12/21 02:59:20;;;;;;;47.95;20.55;;;;;;;-148.88;100.00;75803.63;5014167;28;20585;-83
2022/12/21 03:01:52;;;;;;;50.08;21.20;;;;;;;-148.88;100.00;75809.72;5015086;28;20022;-83
2022/12/21 03:04:45;;;;;;;50.33;20.13;;;;;;;-148.88;100.00;75801.59;5016559;28;20117;-83
2022/12/21 03:07:40;;;;;;;48.78;19.58;;;;;;;-148.88;100.00;75817.84;5015271;28;20529;-83
2022/12/21 03:10:36;;;;;;;54.35;21.23;;;;;;;-148.88;100.00;75823.94;5015623;28;20105;-83
2022/12/21 03:13:35;;;;;;;48.97;19.60;;;;;;;-148.88;100.00;75821.91;5014372;28;20459;-83
2022/12/21 03:16:23;;;;;;;50.58;20.80;;;;;;;-148.88;100.00;75813.78;5017030;28;20492;-83
2022/12/21 03:19:11;;;;;;;56.03;21.35;;;;;;;-148.88;100.00;75830.03;5013974;28;20068;-83
2022/12/21 03:21:45;;;;;;;53.72;21.52;;;;;;;-148.88;100.00;75821.91;5013895;28;20547;-83
2022/12/21 03:24:19;;;;;;;51.95;20.08;;;;;;;-148.88;100.00;75821.91;5013989;28;20032;-82
2022/12/21 03:27:00;;;;;;;47.67;20.35;;;;;;;-148.88;100.00;75813.78;5015700;28;20030;-83
2022/12/21 03:29:33;;;;;;;53.58;20.73;;;;;;;-148.88;100.00;75825.97;5014307;28;20022;-83
2022/12/21 03:32:08;;;;;;;49.75;19.30;;;;;;;-148.88;100.00;75834.09;5015422;28;20022;-84
2022/12/21 03:34:38;;;;;;;51.00;19.08;;;;;;;-148.88;100.00;75832.06;5013969;28;20048;-83
2022/12/21 03:37:27;;;;;;;50.08;20.13;;;;;;;-148.88;100.00;75836.13;5015307;28;20342;-83
2022/12/21 03:40:16;;;;;;;43.70;18.15;;;;;;;-148.88;100.00;75838.16;5015309;28;20072;-83
2022/12/21 03:42:47;;;;;;;48.63;19.73;;;;;;;-148.88;100.00;75842.22;5015014;28;20022;-84
2022/12/21 03:45:28;;;;;;;47.40;19.05;;;;;;;-148.88;100.00;75832.06;5015187;28;20025;-84
2022/12/21 03:48:01;;;;;;;85.90;35.33;;;;;;;-148.88;100.00;75828.00;5015439;28;20080;-83
2022/12/21 03:50:35;;;;;;;50.72;20.20;;;;;;;-148.88;100.00;75817.84;5014920;28;20531;-82
2022/12/21 03:53:39;;;;;;;48.97;18.88;;;;;;;-148.88;100.00;75838.16;5014611;28;20404;-82
2022/12/21 03:56:09;;;;;;;46.13;17.58;;;;;;;-148.88;100.00;75848.31;4971578;28;20416;-83
2022/12/21 03:58:36;;;;;;;50.55;19.27;;;;;;;-148.88;100.00;75842.22;5014148;28;20060;-82
2022/12/21 04:01:16;;;;;;;45.88;19.10;;;;;;;-148.88;100.00;75852.38;5013749;28;20496;-83
2022/12/21 04:03:45;;;;;;;48.30;19.45;;;;;;;-148.88;100.00;75852.38;5015079;28;20038;-83
2022/12/21 04:06:18;;;;;;;45.78;18.05;;;;;;;-148.88;100.00;75850.34;5013641;28;20029;-84
2022/12/21 04:08:45;;;;;;;42.40;15.52;;;;;;;-148.88;100.00;75848.31;5014454;28;20026;-83
2022/12/21 04:12:36;;;;;;;45.42;18.67;;;;;;;-148.88;100.00;75838.16;5015409;28;20033;-84
2022/12/21 04:13:58;;;;;;;37.63;16.52;;;;;;;-148.88;100.00;75825.97;5014500;28;20049;-84
2022/12/21 04:16:24;;;;;;;41.33;18.88;;;;;;;-148.88;100.00;75850.34;5014273;28;20085;-83
2022/12/21 04:21:33;;;;;;;;;;;;;;;-148.88;100.00;75838.16;5015356;28;20024;-82
2022/12/21 04:29:27;;;;;;;53.05;27.00;;;;;;;-148.88;100.00;75842.22;5014609;28;20044;-84
2022/12/21 04:31:53;;;;;;;60.42;26.98;;;;;;;-148.88;100.00;75862.53;5013003;28;20136;-82
2022/12/21 04:34:21;;;;;;;38.03;15.10;;;;;;;-148.88;100.00;75862.53;5014631;28;20040;-82
2022/12/21 04:39:31;;;;;;;35.00;14.27;;;;;;;-148.88;100.00;75854.41;5014533;28;20036;-83
2022/12/21 04:41:57;;;;;;;34.13;13.18;;;;;;;-148.88;100.00;75856.44;5014472;28;20030;-83
2022/12/21 04:44:22;;;;;;;31.05;14.15;;;;;;;-148.88;100.00;75856.44;5014471;28;20022;-83
2022/12/21 04:46:48;;;;;;;31.60;14.30;;;;;;;-148.88;100.00;75862.53;5014637;28;20053;-83
2022/12/21 04:49:13;;;;;;;34.20;14.52;;;;;;;-148.88;100.00;75858.47;5014523;28;20017;-83
2022/12/21 04:51:38;;;;;;;37.38;15.57;;;;;;;-148.88;100.00;75850.34;5013975;28;20030;-85
2022/12/21 04:54:04;;;;;;;33.22;13.73;;;;;;;-148.88;100.00;75838.16;5013183;28;20100;-83
2022/12/21 04:56:30;;;;;;;32.22;14.57;;;;;;;-148.88;100.00;75828.00;5014626;28;20030;-83
2022/12/21 04:58:55;;;;;;;33.95;14.27;;;;;;;-148.88;100.00;75825.97;5014323;28;20025;-83
2022/12/21 05:01:22;;;;;;;34.28;14.55;;;;;;;-148.88;100.00;75823.94;5014301;28;20028;-83
2022/12/21 05:03:49;;;;;;;39.45;16.20;;;;;;;-148.88;100.00;75834.09;5014482;28;20032;-83
2022/12/21 05:06:17;;;;;;;41.22;14.40;;;;;;;-148.88;100.00;75842.22;5014508;28;20025;-84
2022/12/21 05:08:44;;;;;;;36.47;14.13;;;;;;;-148.88;100.00;75838.16;5012812;28;20025;-84
2022/12/21 05:11:18;;;;;;;56.90;16.13;;;;;;;-148.88;100.00;75850.34;5013225;28;20057;-84
2022/12/21 05:13:44;;;;;;;59.40;24.73;;;;;;;-148.88;100.00;75842.22;5013036;28;20025;-84
2022/12/21 05:16:14;;;;;;;40.35;15.40;;;;;;;-148.88;100.00;75846.28;5012904;28;20025;-83
2022/12/21 05:18:40;;;;;;;36.95;15.23;;;;;;;-148.88;100.00;75848.31;5013950;28;20485;-83
2022/12/21 05:21:05;;;;;;;34.78;14.23;;;;;;;-148.88;100.00;75854.41;5014041;28;20028;-84
2022/12/21 05:23:30;;;;;;;30.83;12.65;;;;;;;-148.88;100.00;75840.19;5013586;28;20036;-84
2022/12/21 05:25:56;;;;;;;57.78;14.90;;;;;;;-148.88;100.00;75846.28;5012157;28;20167;-83
2022/12/21 05:28:21;;;;;;;64.60;15.45;;;;;;;-148.88;100.00;75850.34;5013472;28;20096;-83
2022/12/21 05:30:46;;;;;;;106.82;25.30;;;;;;;-148.88;100.00;75856.44;5013207;28;20072;-84
2022/12/21 05:33:11;;;;;;;32.70;10.95;;;;;;;-148.88;100.00;75852.38;5013490;28;20033;-85
2022/12/21 05:35:40;;;;;;;42.38;13.70;;;;;;;-148.88;100.00;75862.53;5013010;28;20112;-83
2022/12/21 05:38:06;;;;;;;32.55;13.40;;;;;;;-148.88;100.00;75860.50;5013355;28;20070;-83
2022/12/21 05:40:33;;;;;;;69.57;22.30;;;;;;;-148.88;100.00;75858.47;5013706;28;20018;-83
2022/12/21 05:42:59;;;;;;;52.33;14.27;;;;;;;-148.88;100.00;75870.66;5013989;28;20026;-83
2022/12/21 05:45:24;;;;;;;46.10;14.85;;;;;;;-148.88;100.00;75862.53;5013620;28;20103;-83
2022/12/21 05:47:49;;;;;;;41.83;15.82;;;;;;;-148.88;100.00;75864.56;5012905;28;20025;-84
2022/12/21 05:50:14;;;;;;;33.22;14.05;;;;;;;-148.88;100.00;75868.63;5011618;28;20026;-84
2022/12/21 05:52:40;;;;;;;94.60;26.30;;;;;;;-148.88;100.00;75874.72;5013116;28;20018;-83
2022/12/21 05:55:05;;;;;;;57.08;22.88;;;;;;;-148.88;100.00;75870.66;5012948;28;20053;-83
2022/12/21 05:57:31;;;;;;;30.52;12.32;;;;;;;-148.88;100.00;75874.72;5013141;28;20044;-85
2022/12/21 05:59:56;;;;;;;59.60;24.48;;;;;;;-148.88;100.00;75878.78;5012809;28;20342;-84
2022/12/21 06:02:21;;;;;;;40.85;14.10;;;;;;;-148.88;100.00;75878.78;5013010;28;20018;-83
2022/12/21 06:04:46;;;;;;;55.83;13.40;;;;;;;-148.88;100.00;75874.72;5011821;28;20022;-83
2022/12/21 06:07:12;;;;;;;31.30;12.60;;;;;;;-148.88;100.00;75854.41;5012959;28;20021;-83
2022/12/21 06:09:37;;;;;;;37.10;13.65;;;;;;;-148.88;100.00;75874.72;5013942;28;20030;-83
2022/12/21 06:12:02;;;;;;;38.38;13.90;;;;;;;-148.88;100.00;75882.84;5013407;28;20089;-84
2022/12/21 06:14:28;;;;;;;58.05;24.80;;;;;;;-148.88;100.00;75878.78;5014086;28;20033;-84
2022/12/21 06:16:53;;;;;;;30.05;12.10;;;;;;;-148.88;100.00;75880.81;5011747;28;20053;-84
2022/12/21 06:19:18;;;;;;;35.97;13.88;;;;;;;-148.88;100.00;75882.84;5012885;28;20030;-84
2022/12/21 06:21:43;;;;;;;32.85;12.75;;;;;;;-148.88;100.00;75880.81;5012644;28;20020;-83
2022/12/21 06:24:09;;;;;;;36.15;13.60;;;;;;;-148.88;100.00;75878.78;5012486;28;20030;-84
2022/12/21 06:26:34;;;;;;;34.95;13.82;;;;;;;-148.88;100.00;75872.69;5011571;28;20025;-84
2022/12/21 06:28:59;;;;;;;39.58;14.55;;;;;;;-148.88;100.00;75878.78;5012981;28;20102;-84
2022/12/21 06:31:25;;;;;;;37.88;14.02;;;;;;;-148.88;100.00;75874.72;5012877;28;20025;-85
2022/12/21 06:34:03;;;;;;;37.95;14.02;;;;;;;-148.88;100.00;75880.81;5040249;22;20497;-86
2022/12/21 06:36:48;;;;;;;50.70;14.80;;;;;;;-148.88;100.00;75886.91;5016239;28;20034;-86
2022/12/21 06:39:42;;;;;;;36.65;12.88;;;;;;;-148.88;100.00;75882.84;5017182;28;20032;-86
2022/12/21 06:42:13;;;;;;;46.70;14.63;;;;;;;-148.88;100.00;75886.91;5015723;28;20108;-84
2022/12/21 06:44:59;;;;;;;52.40;13.95;;;;;;;-148.88;100.00;75884.88;5018513;28;20026;-84
2022/12/21 06:47:39;;;;;;;50.95;15.75;;;;;;;-148.88;100.00;75886.91;5018035;28;20029;-84
2022/12/21 06:50:41;;;;;;;53.47;15.18;;;;;;;-148.88;100.00;75899.09;5020454;28;20064;-86
2022/12/21 06:53:14;;;;;;;39.72;14.02;;;;;;;-148.88;100.00;75895.03;5019259;28;20562;-85
2022/12/21 06:58:41;;;;;;;35.95;12.25;;;;;;;-148.88;100.00;75886.91;4978636;28;20026;-86
2022/12/21 07:01:17;;;;;;;40.80;13.68;;;;;;;-148.88;100.00;75895.03;4962732;28;20539;-87
2022/12/21 07:04:02;;;;;;;;;;;;;;;;;;;;;
2022/12/21 07:07:00;;;;;;;55.30;16.15;;;;;;;-148.88;100.00;75886.91;4992621;28;20152;-86
2022/12/21 07:09:57;;;;;;;40.45;13.93;;;;;;;-148.88;100.00;75903.16;5016976;28;20038;-86
2022/12/21 07:12:41;;;;;;;44.38;14.25;;;;;;;-148.88;100.00;75905.19;4998619;28;20038;-86
2022/12/21 07:15:26;;;;;;;44.63;14.80;;;;;;;-148.88;100.00;75905.19;5018009;28;20350;-84
2022/12/21 07:17:57;;;;;;;42.25;14.63;;;;;;;-148.88;100.00;75909.25;5016078;28;20029;-84
2022/12/21 07:20:26;;;;;;;144.02;19.45;;;;;;;-148.88;100.00;75919.41;5016540;28;20061;-85
2022/12/21 07:22:51;;;;;;;49.15;17.33;;;;;;;-148.88;100.00;75919.41;5019389;28;20025;-85
2022/12/21 07:25:22;;;;;;;51.25;16.80;;;;;;;-148.88;100.00;75919.41;5016826;28;20038;-86
2022/12/21 07:27:48;;;;;;;37.15;14.35;;;;;;;-148.88;100.00;75919.41;5019571;28;20021;-85
2022/12/21 07:30:16;;;;;;;61.55;15.98;;;;;;;-148.88;100.00;75931.59;5020476;28;20021;-86
2022/12/21 07:33:05;;;;;;;49.58;14.65;;;;;;;-148.88;100.00;75925.50;5018003;28;20116;-84
2022/12/21 07:35:59;;;;;;;79.65;15.13;;;;;;;-148.88;100.00;75931.59;5017594;28;20029;-84
2022/12/21 07:38:31;;;;;;;;;;;;;;;-148.88;100.00;75931.59;5020218;28;20060;-83
2022/12/21 07:41:18;;;;;;;193.57;19.67;;;;;;;-148.88;100.00;75931.59;5019196;28;19991;-83
2022/12/21 07:43:46;;;;;;;73.78;13.68;;;;;;;-148.88;100.00;75931.59;5020203;28;20038;-83
2022/12/21 07:46:13;;;;;;;129.93;12.93;;;;;;;-148.88;100.00;75935.66;5020023;28;20475;-84
2022/12/21 07:48:46;;;;;;;70.65;12.52;;;;;;;-148.88;100.00;75935.66;5020557;28;20026;-84
2022/12/21 07:57:34;;;;;;;79.78;10.98;;;;;;;-148.88;100.00;75955.97;4989129;28;20044;-83
2022/12/21 07:59:59;;;;;;;254.23;19.45;;;;;;;-148.88;100.00;75951.91;5020866;28;20089;-84
2022/12/21 08:02:25;;;;;;;66.07;11.00;;;;;;;-148.88;100.00;75947.84;5022749;28;20045;-83
2022/12/21 08:04:50;;;;;;;38.38;8.90;;;;;;;-148.88;100.00;75947.84;5019333;28;20049;-83
2022/12/21 08:07:18;;;;;;;24.00;9.30;;;;;;;-148.88;100.00;75943.78;5020141;28;20030;-84
2022/12/21 08:09:44;;;;;;;39.03;10.57;;;;;;;-148.88;100.00;75933.63;5019778;28;20435;-83
2022/12/21 08:12:23;;;;;;;29.65;10.25;;;;;;;-148.88;100.00;75939.72;5021300;28;20461;-85
2022/12/21 08:21:21;;;;;;;40.78;9.85;;;;;;;-148.88;100.00;75937.69;5005816;28;20022;-83
2022/12/21 08:24:04;;;;;;;;;;;;;;;;;;;;;
2022/12/21 08:26:36;;;;;;;62.85;18.60;;;;;;;-148.88;100.00;75929.56;5016986;28;20026;-83
2022/12/21 08:29:22;;;;;;;25.38;8.23;;;;;;;-148.88;100.00;75935.66;5016017;28;20026;-83
2022/12/21 08:31:59;;;;;;;30.33;9.80;;;;;;;-148.88;100.00;75937.69;5017930;28;20040;-82
2022/12/21 08:34:25;;;;;;;41.22;10.00;;;;;;;-148.88;100.00;75935.66;5021267;22;20050;-75
2022/12/21 08:36:50;;;;;;;77.25;11.77;;;;;;;-148.88;100.00;75931.59;5014167;28;20511;-74
2022/12/21 08:39:15;;;;;;;128.18;15.10;;;;;;;-148.88;100.00;75943.78;5014059;28;20057;-74
2022/12/21 08:41:40;;;;;;;31.60;11.07;;;;;;;-148.88;100.00;75947.84;5014069;28;20542;-74
2022/12/21 08:44:06;;;;;;;46.08;11.30;;;;;;;-148.88;100.00;75943.78;5013953;28;20025;-74
2022/12/21 08:46:32;;;;;;;77.13;24.27;;;;;;;-148.88;100.00;75931.59;5014004;28;20120;-75
2022/12/21 08:48:58;;;;;;;64.15;12.20;;;;;;;-148.88;100.00;75929.56;5012620;28;20112;-74
2022/12/21 08:51:23;;;;;;;47.38;11.90;;;;;;;-148.88;100.00;75933.63;5013839;28;20101;-74
2022/12/21 08:53:48;;;;;;;50.63;13.70;;;;;;;-148.88;100.00;75931.59;5013853;28;20037;-74
2022/12/21 08:56:14;;;;;;;45.03;14.65;;;;;;;-148.88;100.00;75933.63;5013779;28;20026;-74
2022/12/21 08:58:39;;;;;;;39.67;13.23;;;;;;;-148.88;100.00;75935.66;5014011;28;20412;-74
2022/12/21 09:01:04;;;;;;;42.97;15.05;;;;;;;-148.88;100.00;75935.66;5014010;28;20022;-75
2022/12/21 09:03:29;;;;;;;41.42;15.15;;;;;;;-148.88;100.00;75931.59;5014102;28;20392;-74
2022/12/21 09:05:57;;;;;;;47.88;15.68;;;;;;;-148.88;100.00;75929.56;5013211;28;20022;-74
2022/12/21 09:08:24;;;;;;;37.63;13.40;;;;;;;-148.88;100.00;75931.59;5013604;28;20441;-75
2022/12/21 09:10:50;;;;;;;45.22;14.02;;;;;;;-148.88;100.00;75929.56;5012513;28;20472;-74
2022/12/21 09:13:15;;;;;;;40.13;15.07;;;;;;;-148.88;100.00;75929.56;5013765;28;20034;-75
2022/12/21 09:15:42;;;;;;;66.05;25.40;;;;;;;-148.88;100.00;75927.53;5013505;28;20079;-76
2022/12/21 09:18:08;;;;;;;72.60;25.92;;;;;;;-148.88;100.00;75923.47;5013937;28;20018;-75
2022/12/21 09:20:34;;;;;;;36.45;12.73;;;;;;;-148.88;100.00;75925.50;5013790;28;20021;-75
2022/12/21 09:23:00;;;;;;;33.42;11.68;;;;;;;-148.88;100.00;75923.47;5013326;28;20037;-75
2022/12/21 09:25:25;;;;;;;37.85;13.32;;;;;;;-148.88;100.00;75923.47;5013317;28;20095;-76
2022/12/21 09:27:51;;;;;;;39.75;16.60;;;;;;;-148.88;100.00;75927.53;5013626;28;20101;-75
2022/12/21 09:30:16;;;;;;;49.25;19.05;;;;;;;-148.88;100.00;75935.66;5013198;28;20017;-75
2022/12/21 09:32:41;;;;;;;44.33;17.40;;;;;;;-148.88;100.00;75937.69;5013260;28;20097;-75
2022/12/21 09:35:07;;;;;;;43.95;16.15;;;;;;;-148.88;100.00;75943.78;5013202;28;20029;-74
2022/12/21 09:37:33;;;;;;;33.58;14.15;;;;;;;-148.88;100.00;75947.84;5013344;28;20111;-75
2022/12/21 09:39:59;;;;;;;37.38;15.75;;;;;;;-148.88;100.00;75933.63;5011814;28;20401;-75
2022/12/21 09:42:52;;;;;;;35.20;15.32;;;;;;;-148.88;100.00;75941.75;5013204;28;20465;-75
2022/12/21 09:45:35;;;;;;;35.45;14.25;;;;;;;-148.88;100.00;75951.91;5013120;28;20054;-75
2022/12/21 09:48:04;;;;;;;36.80;14.38;;;;;;;-148.88;100.00;75951.91;5013156;28;20025;-74
2022/12/21 09:50:41;;;;;;;46.92;17.58;;;;;;;-148.88;100.00;75947.84;5012971;28;20030;-75
2022/12/21 09:53:17;;;;;;;40.72;16.20;;;;;;;-148.88;100.00;75960.03;5013320;28;20022;-75
2022/12/21 09:55:46;;;;;;;41.53;16.77;;;;;;;-148.88;100.00;75964.09;5013274;28;20164;-75
2022/12/21 09:58:16;;;;;;;38.50;13.68;;;;;;;-148.88;100.00;75958.00;5013329;28;20034;-75
2022/12/21 10:00:47;;;;;;;39.78;14.23;;;;;;;-148.88;100.00;75960.03;5012973;28;20485;-75
2022/12/21 10:03:30;;;;;;;36.20;13.10;;;;;;;-148.88;100.00;75949.88;5013256;28;20038;-75
2022/12/21 10:06:23;;;;;;;45.38;16.10;;;;;;;-148.88;100.00;75947.84;5012973;28;20030;-75
2022/12/21 10:09:02;;;;;;;35.78;13.43;;;;;;;-148.88;100.00;75945.81;5013148;28;20555;-75
2022/12/21 10:11:30;;;;;;;53.22;19.10;;;;;;;-148.88;100.00;75955.97;5013125;28;20041;-75
2022/12/21 10:14:21;;;;;;;55.40;21.27;;;;;;;-148.88;100.00;75960.03;5012822;28;20543;-76
2022/12/21 10:17:08;;;;;;;44.70;16.88;;;;;;;-148.88;100.00;75955.97;5012987;28;20029;-75
2022/12/21 10:19:41;;;;;;;42.72;14.90;;;;;;;-148.88;100.00;75964.09;5016711;28;20420;-75
2022/12/21 10:22:23;;;;;;;40.65;13.13;;;;;;;-148.88;100.00;75968.16;5015638;28;20053;-75
2022/12/21 10:24:52;;;;;;;35.55;13.88;;;;;;;-148.88;100.00;75962.06;5016810;28;20057;-76
2022/12/21 10:27:30;;;;;;;50.25;14.98;;;;;;;-148.88;100.00;75960.03;5016844;28;20022;-75
2022/12/21 10:29:57;;;;;;;34.67;12.35;;;;;;;-148.88;100.00;75966.13;5016834;28;20030;-76
2022/12/21 10:32:30;;;;;;;36.45;13.60;;;;;;;-148.88;100.00;75962.06;5016545;28;20041;-75
2022/12/21 10:35:00;;;;;;;36.90;12.07;;;;;;;-148.88;100.00;75970.19;5016381;28;20112;-76
2022/12/21 10:37:26;;;;;;;42.75;15.35;;;;;;;-148.88;100.00;75972.22;5016498;28;20068;-76
2022/12/21 10:39:56;;;;;;;35.90;14.65;;;;;;;-148.88;100.00;75978.31;5016345;28;20057;-76
2022/12/21 10:42:40;;;;;;;39.25;13.25;;;;;;;-148.88;100.00;75974.25;5016346;28;20389;-75
2022/12/21 10:45:12;;;;;;;41.10;13.13;;;;;;;-148.88;100.00;75964.09;5016255;28;20214;-76
2022/12/21 10:47:37;;;;;;;41.08;14.45;;;;;;;-148.88;100.00;75949.88;5015154;28;20054;-76
2022/12/21 10:50:10;;;;;;;39.47;14.60;;;;;;;-148.88;100.00;75943.78;5014888;28;20057;-76
2022/12/21 10:52:40;;;;;;;37.22;12.90;;;;;;;-148.88;100.00;75927.53;5016466;28;20022;-76
2022/12/21 10:55:26;;;;;;;44.47;14.60;;;;;;;-148.88;100.00;75929.56;5016046;28;20041;-75
2022/12/21 10:58:01;;;;;;;44.47;13.10;;;;;;;-148.88;100.00;75941.75;5016428;28;20114;-76
2022/12/21 11:00:29;;;;;;;42.03;15.25;;;;;;;-148.88;100.00;75943.78;5016197;28;20073;-75
2022/12/21 11:02:58;;;;;;;40.38;13.73;;;;;;;-148.88;100.00;75937.69;5014716;28;20053;-75
2022/12/21 11:05:32;;;;;;;42.90;14.55;;;;;;;-148.88;100.00;75951.91;5015963;28;20029;-76
2022/12/21 11:08:15;;;;;;;31.38;11.38;;;;;;;-148.88;100.00;75943.78;5014617;28;20033;-76
2022/12/21 11:10:43;;;;;;;41.80;12.77;;;;;;;-148.88;100.00;75935.66;5015781;28;20547;-76
2022/12/21 11:13:11;;;;;;;27.80;10.93;;;;;;;-148.88;100.00;75931.59;5015974;28;20052;-76
2022/12/21 11:15:37;;;;;;;27.67;10.80;;;;;;;-148.88;100.00;75951.91;5015606;28;20378;-76
2022/12/21 11:18:02;;;;;;;31.90;11.18;;;;;;;-148.88;100.00;75955.97;5015715;28;20025;-75
2022/12/21 11:20:28;;;;;;;31.55;10.43;;;;;;;-148.88;100.00;75964.09;5014282;28;20485;-75
2022/12/21 11:22:56;;;;;;;30.08;11.32;;;;;;;-148.88;100.00;75964.09;5014213;28;20365;-76
2022/12/21 11:25:26;;;;;;;24.73;9.30;;;;;;;-148.88;100.00;75945.81;5015512;28;20488;-76
2022/12/21 11:27:58;;;;;;;27.75;10.75;;;;;;;-148.88;100.00;75921.44;5013705;28;20032;-76
2022/12/21 11:30:26;;;;;;;25.05;9.40;;;;;;;-148.88;100.00;75915.34;5014131;28;20500;-76
2022/12/21 11:32:54;;;;;;;31.98;11.05;;;;;;;-148.88;100.00;75905.19;5015441;28;20491;-75
2022/12/21 11:35:34;;;;;;;30.00;10.48;;;;;;;-148.88;100.00;75888.94;5014007;28;20057;-75
2022/12/21 11:38:10;;;;;;;30.80;9.95;;;;;;;-148.88;100.00;75878.78;5015496;28;20018;-76
2022/12/21 11:40:36;;;;;;;23.17;9.15;;;;;;;-148.88;100.00;75903.16;5015420;28;20028;-76
2022/12/21 11:43:15;;;;;;;26.77;9.43;;;;;;;-148.88;100.00;75905.19;5015083;28;20073;-75
2022/12/21 11:46:04;;;;;;;24.90;9.20;;;;;;;-148.88;100.00;75905.19;5015206;28;20037;-75